Time;durP1;ratioP1;P1;durP2;ratioP2;P2;SDS_P1;SDS_P2;PMS_P1;PMS_P2;Temp;Humidity;BMP_temperature;BMP_pressure;BME280_temperature;BME280_humidity;BME280_pressure;Samples;Min_cycle;Max_cycle;Signal;HPM_P1;HPM_P2
2023/07/21 00:01:00;;;;;;;0.70;0.40;;;20.40;1.00;;;;;;5076454;28;20439;-51
2023/07/21 00:03:27;;;;;;;0.60;0.40;;;20.40;1.00;;;;;;5076613;28;20703;-55
2023/07/21 00:05:55;;;;;;;1.20;0.40;;;20.40;1.00;;;;;;5076527;28;20431;-56
2023/07/21 00:08:24;;;;;;;0.50;0.37;;;20.30;1.00;;;;;;5076228;28;20424;-55
2023/07/21 00:10:52;;;;;;;0.70;0.40;;;20.20;1.00;;;;;;5077028;28;20437;-54
2023/07/21 00:13:19;;;;;;;0.70;0.40;;;20.00;1.00;;;;;;5075720;28;20428;-55
2023/07/21 00:15:48;;;;;;;0.60;0.40;;;19.90;1.00;;;;;;5077700;28;20416;-56
2023/07/21 00:18:15;;;;;;;0.73;0.40;;;19.90;1.00;;;;;;5077289;28;20471;-56
2023/07/21 00:20:42;;;;;;;0.60;0.40;;;19.70;1.00;;;;;;5077234;28;20488;-55
2023/07/21 00:23:09;;;;;;;0.70;0.40;;;19.70;1.00;;;;;;5077623;28;20428;-52
2023/07/21 00:25:36;;;;;;;0.90;0.50;;;19.60;1.00;;;;;;5077459;28;20432;-55
2023/07/21 00:28:05;;;;;;;0.60;0.40;;;19.60;1.00;;;;;;5076869;28;20477;-54
2023/07/21 00:30:33;;;;;;;0.95;0.35;;;19.60;1.00;;;;;;5077233;28;20431;-56
2023/07/21 00:33:00;;;;;;;0.70;0.40;;;19.60;1.00;;;;;;5077007;28;20419;-55
2023/07/21 00:35:27;;;;;;;0.68;0.40;;;19.60;1.00;;;;;;5076512;28;20458;-53
2023/07/21 00:37:58;;;;;;;0.63;0.40;;;19.60;1.00;;;;;;5076897;28;20509;-52
2023/07/21 00:40:25;;;;;;;0.63;0.40;;;19.70;1.00;;;;;;5077162;28;20859;-54
2023/07/21 00:42:52;;;;;;;0.88;0.50;;;19.70;1.00;;;;;;5076565;28;20434;-56
2023/07/21 00:45:21;;;;;;;0.68;0.40;;;19.70;1.00;;;;;;5076610;28;20434;-54
2023/07/21 00:47:49;;;;;;;1.00;0.40;;;19.90;1.00;;;;;;5076907;28;20424;-54
2023/07/21 00:50:16;;;;;;;0.60;0.40;;;20.00;1.00;;;;;;5076965;28;20485;-56
2023/07/21 00:52:44;;;;;;;0.70;0.40;;;20.00;1.00;;;;;;5076849;28;20423;-55
2023/07/21 00:55:11;;;;;;;0.60;0.30;;;20.10;1.00;;;;;;5076812;28;20427;-56
2023/07/21 00:57:39;;;;;;;0.70;0.40;;;20.10;1.00;;;;;;5076155;28;20431;-52
2023/07/21 01:00:12;;;;;;;0.75;0.40;;;20.10;1.00;;;;;;5075556;28;20520;-55
2023/07/21 01:02:40;;;;;;;1.20;0.40;;;20.00;1.00;;;;;;5076683;28;20516;-55
2023/07/21 01:05:09;;;;;;;0.60;0.40;;;20.00;1.00;;;;;;5075704;28;20431;-54
2023/07/21 01:07:38;;;;;;;1.30;0.50;;;19.90;1.00;;;;;;5075994;28;20671;-55
2023/07/21 01:10:06;;;;;;;0.80;0.40;;;19.80;1.00;;;;;;5074910;28;20866;-53
2023/07/21 01:12:33;;;;;;;1.00;0.47;;;19.80;1.00;;;;;;5074671;28;20420;-56
2023/07/21 01:15:00;;;;;;;0.70;0.40;;;19.90;1.00;;;;;;5076179;28;20415;-53
2023/07/21 01:17:29;;;;;;;0.80;0.50;;;19.90;1.00;;;;;;5076118;28;20493;-55
2023/07/21 01:19:58;;;;;;;0.70;0.40;;;20.00;1.00;;;;;;5059904;28;20430;-55
2023/07/21 01:22:31;;;;;;;1.40;0.40;;;20.00;1.00;;;;;;5054988;28;20864;-53
2023/07/21 01:25:09;;;;;;;0.80;0.40;;;20.20;1.00;;;;;;5055276;28;20818;-54
2023/07/21 01:27:39;;;;;;;0.70;0.40;;;20.20;1.00;;;;;;5053342;28;20496;-51
2023/07/21 01:30:11;;;;;;;0.70;0.40;;;20.20;1.00;;;;;;5055075;28;20421;-55
2023/07/21 01:32:40;;;;;;;0.90;0.40;;;20.20;1.00;;;;;;5055909;28;20444;-54
2023/07/21 01:35:09;;;;;;;0.70;0.40;;;20.20;1.00;;;;;;5055897;28;20574;-54
2023/07/21 01:37:38;;;;;;;0.80;0.40;;;20.10;1.00;;;;;;5055290;28;20892;-55
2023/07/21 01:40:11;;;;;;;0.60;0.40;;;20.00;1.00;;;;;;5055254;28;20452;-54
2023/07/21 01:42:39;;;;;;;0.60;0.40;;;19.90;1.00;;;;;;5055917;28;20417;-54
2023/07/21 01:45:08;;;;;;;0.80;0.50;;;19.80;1.00;;;;;;5054255;28;20445;-54
2023/07/21 01:47:36;;;;;;;0.90;0.40;;;19.80;1.00;;;;;;5055703;28;20429;-55
2023/07/21 01:50:06;;;;;;;1.00;0.40;;;19.80;1.00;;;;;;5055907;28;20465;-52
2023/07/21 01:52:36;;;;;;;0.80;0.40;;;19.80;1.00;;;;;;5055807;28;20616;-55
2023/07/21 01:55:10;;;;;;;0.80;0.47;;;19.80;1.00;;;;;;5055592;28;20710;-55
2023/07/21 01:57:39;;;;;;;1.00;0.40;;;19.90;1.00;;;;;;5055186;28;20436;-56
2023/07/21 02:00:10;;;;;;;0.80;0.40;;;19.90;1.00;;;;;;5055738;28;20821;-53
2023/07/21 02:02:38;;;;;;;0.63;0.40;;;19.90;1.00;;;;;;5056119;28;20546;-55
2023/07/21 02:05:06;;;;;;;0.65;0.40;;;19.80;1.00;;;;;;5055374;28;20898;-55
2023/07/21 02:07:35;;;;;;;0.70;0.40;;;19.70;1.00;;;;;;5055397;28;20471;-53
2023/07/21 02:10:04;;;;;;;0.80;0.40;;;19.60;1.00;;;;;;5055383;28;20429;-54
2023/07/21 02:12:32;;;;;;;0.50;0.30;;;19.50;1.00;;;;;;5055529;28;20421;-58
2023/07/21 02:15:00;;;;;;;0.70;0.40;;;19.50;1.00;;;;;;5055377;28;21206;-52
2023/07/21 02:17:27;;;;;;;0.80;0.40;;;19.60;1.00;;;;;;5055088;28;20428;-54
2023/07/21 02:19:53;;;;;;;0.60;0.40;;;19.70;1.00;;;;;;5055148;28;20879;-54
2023/07/21 02:22:20;;;;;;;0.82;0.40;;;19.70;1.00;;;;;;5055581;28;20784;-56
2023/07/21 02:24:47;;;;;;;0.70;0.50;;;19.70;1.00;;;;;;5055080;28;20425;-55
2023/07/21 02:27:14;;;;;;;0.70;0.40;;;19.70;1.00;;;;;;5055111;28;20421;-55
2023/07/21 02:29:48;;;;;;;0.90;0.40;;;19.70;1.00;;;;;;5054608;28;20429;-56
2023/07/21 02:32:15;;;;;;;0.60;0.40;;;19.60;1.00;;;;;;5054734;28;20464;-54
2023/07/21 02:34:43;;;;;;;0.60;0.40;;;19.60;1.00;;;;;;5054617;28;20429;-56
2023/07/21 02:37:10;;;;;;;0.80;0.40;;;19.60;1.00;;;;;;5053124;28;20437;-56
2023/07/21 02:39:37;;;;;;;0.60;0.40;;;19.60;1.00;;;;;;5054469;28;20467;-52
2023/07/21 02:42:04;;;;;;;0.70;0.40;;;19.60;1.00;;;;;;5054188;28;20426;-58
2023/07/21 02:44:31;;;;;;;0.60;0.40;;;19.60;1.00;;;;;;5054439;28;20429;-55
2023/07/21 02:47:00;;;;;;;1.40;0.50;;;19.60;1.00;;;;;;5054562;28;20487;-55
2023/07/21 02:49:27;;;;;;;0.80;0.40;;;19.60;1.00;;;;;;5054386;28;20432;-55
2023/07/21 02:51:54;;;;;;;0.70;0.40;;;19.60;1.00;;;;;;5053680;28;20440;-53
2023/07/21 02:54:21;;;;;;;0.70;0.40;;;19.60;1.00;;;;;;5054080;28;20429;-55
2023/07/21 02:56:48;;;;;;;1.30;0.50;;;19.60;1.00;;;;;;5055531;28;20437;-54
2023/07/21 02:59:16;;;;;;;0.60;0.40;;;19.50;1.00;;;;;;5059057;28;20853;-56
2023/07/21 03:01:54;;;;;;;0.60;0.40;;;19.30;1.00;;;;;;5058721;28;20433;-55
2023/07/21 03:04:23;;;;;;;0.60;0.40;;;19.30;1.00;;;;;;5059158;28;20487;-55
2023/07/21 03:06:50;;;;;;;0.80;0.40;;;19.30;1.00;;;;;;5058861;28;20520;-53
2023/07/21 03:09:18;;;;;;;0.73;0.43;;;19.30;1.00;;;;;;5058777;28;20724;-55
2023/07/21 03:11:45;;;;;;;0.90;0.40;;;19.30;1.00;;;;;;5058639;28;20443;-54
2023/07/21 03:14:12;;;;;;;0.70;0.40;;;19.30;1.00;;;;;;5058949;28;20433;-53
2023/07/21 03:16:39;;;;;;;0.80;0.40;;;19.30;1.00;;;;;;5058664;28;20436;-55
2023/07/21 03:19:06;;;;;;;1.40;0.50;;;19.30;1.00;;;;;;5058472;28;20845;-53
2023/07/21 03:21:35;;;;;;;1.17;0.50;;;19.40;1.00;;;;;;5058237;28;20424;-55
2023/07/21 03:24:02;;;;;;;0.60;0.40;;;19.40;1.00;;;;;;5058444;28;20424;-55
2023/07/21 03:26:29;;;;;;;0.70;0.40;;;19.30;1.00;;;;;;5058394;28;20532;-52
2023/07/21 03:28:56;;;;;;;0.80;0.40;;;19.30;1.00;;;;;;5056200;28;20428;-54
2023/07/21 03:31:23;;;;;;;0.70;0.40;;;19.30;1.00;;;;;;5057911;28;20452;-54
2023/07/21 03:33:50;;;;;;;0.70;0.50;;;19.30;1.00;;;;;;5058213;28;20898;-54
2023/07/21 03:36:20;;;;;;;1.50;0.50;;;19.30;1.00;;;;;;5058039;28;20417;-55
2023/07/21 03:38:48;;;;;;;0.80;0.50;;;19.20;1.00;;;;;;5058507;28;20490;-53
2023/07/21 03:41:16;;;;;;;0.90;0.40;;;19.10;1.00;;;;;;5057427;28;20425;-54
2023/07/21 03:43:43;;;;;;;0.70;0.40;;;19.10;1.00;;;;;;5057896;28;21059;-53
2023/07/21 03:46:10;;;;;;;0.90;0.40;;;19.20;1.00;;;;;;5057839;28;20494;-55
2023/07/21 03:48:37;;;;;;;0.90;0.50;;;19.30;1.00;;;;;;5057390;28;20486;-52
2023/07/21 03:51:06;;;;;;;0.80;0.50;;;19.40;1.00;;;;;;5058185;28;20503;-53
2023/07/21 03:53:33;;;;;;;0.80;0.50;;;19.30;1.00;;;;;;5057202;28;20432;-54
2023/07/21 03:56:02;;;;;;;0.98;0.50;;;19.30;1.00;;;;;;5056310;28;20483;-55
2023/07/21 03:58:29;;;;;;;0.85;0.40;;;19.20;1.00;;;;;;5057519;28;20784;-52
2023/07/21 04:00:58;;;;;;;0.70;0.47;;;19.30;1.00;;;;;;5057550;28;20840;-54
2023/07/21 04:03:25;;;;;;;0.70;0.50;;;19.20;1.00;;;;;;5057384;28;20436;-55
2023/07/21 04:05:52;;;;;;;2.60;0.80;;;19.20;1.00;;;;;;5057825;28;20491;-50
2023/07/21 04:08:19;;;;;;;0.80;0.40;;;19.20;1.00;;;;;;5056747;28;20479;-59
2023/07/21 04:10:47;;;;;;;0.68;0.40;;;19.20;1.00;;;;;;5057620;28;20421;-53
2023/07/21 04:13:15;;;;;;;0.75;0.52;;;19.30;1.00;;;;;;5057205;28;20486;-54
2023/07/21 04:15:42;;;;;;;0.90;0.40;;;19.40;1.00;;;;;;5057612;28;20433;-54
2023/07/21 04:18:09;;;;;;;0.93;0.40;;;19.40;1.00;;;;;;5057264;28;20499;-55
2023/07/21 04:20:36;;;;;;;1.10;0.50;;;19.40;1.00;;;;;;5056099;28;20511;-55
2023/07/21 04:23:03;;;;;;;0.85;0.50;;;19.40;1.00;;;;;;5055842;28;20491;-55
2023/07/21 04:25:32;;;;;;;0.80;0.50;;;19.40;1.00;;;;;;5056133;28;20475;-55
2023/07/21 04:27:59;;;;;;;0.90;0.50;;;19.40;1.00;;;;;;5056057;28;20444;-56
2023/07/21 04:30:27;;;;;;;0.70;0.50;;;19.40;1.00;;;;;;5056362;28;20671;-56
2023/07/21 04:32:54;;;;;;;0.80;0.50;;;19.40;1.00;;;;;;5056687;28;20491;-55
2023/07/21 04:35:21;;;;;;;1.30;0.60;;;19.50;1.00;;;;;;5056836;28;20499;-56
2023/07/21 04:37:48;;;;;;;1.67;0.60;;;19.40;1.00;;;;;;5056925;28;20432;-56
2023/07/21 04:40:15;;;;;;;0.80;0.50;;;19.30;1.00;;;;;;5056069;28;20433;-54
2023/07/21 04:42:43;;;;;;;0.85;0.50;;;19.30;1.00;;;;;;5055443;28;20433;-54
2023/07/21 04:45:12;;;;;;;0.70;0.40;;;19.40;1.00;;;;;;5054494;28;20531;-55
2023/07/21 04:47:43;;;;;;;0.90;0.50;;;19.50;1.00;;;;;;5056578;28;20469;-56
2023/07/21 04:50:10;;;;;;;0.85;0.50;;;19.60;1.00;;;;;;5056875;28;20433;-54
2023/07/21 04:52:38;;;;;;;1.10;0.50;;;19.80;1.00;;;;;;5056132;28;20417;-51
2023/07/21 04:55:06;;;;;;;0.75;0.50;;;20.00;1.00;;;;;;5055473;28;20787;-55
2023/07/21 04:57:34;;;;;;;0.80;0.60;;;19.90;1.00;;;;;;5055563;28;20535;-49
2023/07/21 05:00:01;;;;;;;1.30;0.40;;;19.70;1.00;;;;;;5056978;28;20491;-55
2023/07/21 05:02:29;;;;;;;1.15;0.50;;;19.70;1.00;;;;;;5056583;28;20707;-53
2023/07/21 05:04:58;;;;;;;1.60;0.40;;;19.80;1.00;;;;;;5054976;28;20433;-55
2023/07/21 05:07:26;;;;;;;0.65;0.40;;;19.80;1.00;;;;;;5054218;28;20417;-52
2023/07/21 05:09:55;;;;;;;0.80;0.40;;;19.70;1.00;;;;;;5055058;28;20724;-54
2023/07/21 05:12:25;;;;;;;1.20;0.50;;;19.70;1.00;;;;;;5053741;28;20433;-53
2023/07/21 05:14:52;;;;;;;1.10;0.50;;;19.80;1.00;;;;;;5054379;28;20425;-55
2023/07/21 05:17:19;;;;;;;1.33;0.45;;;19.70;1.00;;;;;;5054323;28;20433;-53
2023/07/21 05:19:46;;;;;;;0.70;0.50;;;19.80;1.00;;;;;;5053308;28;20741;-55
2023/07/21 05:22:14;;;;;;;0.88;0.50;;;19.80;1.00;;;;;;5053246;28;20414;-52
2023/07/21 05:24:41;;;;;;;0.88;0.50;;;19.80;1.00;;;;;;5054150;28;20436;-54
2023/07/21 05:27:08;;;;;;;1.30;0.60;;;19.70;1.00;;;;;;5052423;28;20469;-51
2023/07/21 05:29:35;;;;;;;0.70;0.50;;;19.70;1.00;;;;;;5052597;28;20487;-50
2023/07/21 05:32:05;;;;;;;0.70;0.40;;;19.70;1.00;;;;;;5052021;28;20425;-52
2023/07/21 05:34:33;;;;;;;0.80;0.50;;;19.70;1.00;;;;;;5051970;28;20592;-53
2023/07/21 05:37:00;;;;;;;1.00;0.50;;;19.80;1.00;;;;;;5052149;28;20782;-52
2023/07/21 05:39:29;;;;;;;0.80;0.40;;;19.80;1.00;;;;;;5052765;28;20491;-52
2023/07/21 05:41:57;;;;;;;1.90;0.50;;;19.80;1.00;;;;;;5051932;28;20433;-50
2023/07/21 05:44:24;;;;;;;0.80;0.50;;;19.90;1.00;;;;;;5051556;28;20433;-52
2023/07/21 05:46:51;;;;;;;0.90;0.50;;;20.00;1.00;;;;;;5050751;28;20482;-52
2023/07/21 05:49:18;;;;;;;1.40;0.50;;;19.90;1.00;;;;;;5053051;28;20702;-51
2023/07/21 05:51:45;;;;;;;0.90;0.50;;;19.90;1.00;;;;;;5053518;28;20907;-52
2023/07/21 05:54:12;;;;;;;0.82;0.40;;;20.00;1.00;;;;;;5053277;28;20433;-53
2023/07/21 05:56:40;;;;;;;0.80;0.50;;;20.10;1.00;;;;;;5054067;28;20845;-54
2023/07/21 05:59:07;;;;;;;0.80;0.50;;;20.10;1.00;;;;;;5054014;28;20440;-53
2023/07/21 06:01:36;;;;;;;1.50;0.50;;;20.00;1.00;;;;;;5053843;28;20421;-54
2023/07/21 06:04:04;;;;;;;0.88;0.50;;;20.00;1.00;;;;;;5053954;28;20429;-54
2023/07/21 06:06:31;;;;;;;2.17;0.50;;;20.20;1.00;;;;;;5054688;28;20429;-56
2023/07/21 06:08:58;;;;;;;0.80;0.50;;;20.30;1.00;;;;;;5067784;28;20432;-55
2023/07/21 06:11:26;;;;;;;0.75;0.40;;;20.50;1.00;;;;;;5074618;28;20438;-54
2023/07/21 06:13:54;;;;;;;0.75;0.40;;;20.50;1.00;;;;;;5070957;28;20864;-55
2023/07/21 06:16:23;;;;;;;0.73;0.40;;;20.50;1.00;;;;;;5073691;28;20753;-55
2023/07/21 06:18:51;;;;;;;1.00;0.50;;;20.70;1.00;;;;;;5070059;28;20442;-54
2023/07/21 06:21:20;;;;;;;0.90;0.50;;;20.90;1.00;;;;;;5073371;28;20727;-56
2023/07/21 06:23:48;;;;;;;0.80;0.50;;;21.00;1.00;;;;;;5071531;28;20467;-55
2023/07/21 06:26:15;;;;;;;1.00;0.50;;;21.10;1.00;;;;;;5070783;28;20431;-55
2023/07/21 06:28:42;;;;;;;0.93;0.50;;;21.10;1.00;;;;;;5073024;28;20427;-55
2023/07/21 06:31:11;;;;;;;0.88;0.50;;;21.10;1.00;;;;;;5073562;28;20485;-55
2023/07/21 06:33:38;;;;;;;0.70;0.43;;;21.10;1.00;;;;;;5070632;28;20442;-57
2023/07/21 06:36:06;;;;;;;1.38;0.50;;;21.20;1.00;;;;;;5072066;28;20439;-56
2023/07/21 06:38:33;;;;;;;1.08;0.40;;;21.30;1.00;;;;;;5070219;28;20435;-54
2023/07/21 06:41:00;;;;;;;0.70;0.40;;;21.40;1.00;;;;;;5071300;28;20518;-56
2023/07/21 06:43:28;;;;;;;0.70;0.40;;;21.50;1.00;;;;;;5071742;28;20427;-56
2023/07/21 06:45:55;;;;;;;0.50;0.40;;;21.60;1.00;;;;;;5068146;28;20437;-57
2023/07/21 06:48:23;;;;;;;0.90;0.40;;;21.70;1.00;;;;;;5089309;28;20439;-55
2023/07/21 06:50:50;;;;;;;1.20;0.40;;;21.90;1.00;;;;;;5060214;28;20530;-54
2023/07/21 06:53:18;;;;;;;1.40;0.40;;;21.90;1.00;;;;;;5070976;28;20439;-53
2023/07/21 06:55:46;;;;;;;0.70;0.40;;;21.90;1.00;;;;;;5071901;28;20485;-55
2023/07/21 06:58:13;;;;;;;0.70;0.40;;;21.80;1.00;;;;;;5072158;28;20435;-51
2023/07/21 07:00:40;;;;;;;0.70;0.40;;;22.00;1.00;;;;;;5069904;28;20438;-55
2023/07/21 07:03:08;;;;;;;1.10;0.50;;;22.30;1.00;;;;;;5072318;28;20743;-54
2023/07/21 07:05:36;;;;;;;1.27;0.40;;;22.50;1.00;;;;;;5091551;28;20545;-53
2023/07/21 07:08:03;;;;;;;0.80;0.40;;;22.70;1.00;;;;;;5084265;28;20492;-54
2023/07/21 07:10:30;;;;;;;0.70;0.40;;;22.80;1.00;;;;;;5084972;28;20421;-55
2023/07/21 07:12:57;;;;;;;1.00;0.40;;;23.00;1.00;;;;;;5092012;28;20421;-55
2023/07/21 07:15:24;;;;;;;0.82;0.40;;;23.20;1.00;;;;;;5079579;28;20438;-56
2023/07/21 07:17:51;;;;;;;1.10;0.50;;;23.20;1.00;;;;;;5069506;28;20501;-55
2023/07/21 07:20:18;;;;;;;1.20;0.40;;;23.20;1.00;;;;;;5070175;28;20483;-54
2023/07/21 07:22:48;;;;;;;1.50;0.40;;;23.20;1.00;;;;;;5070187;28;20473;-54
2023/07/21 07:25:15;;;;;;;0.70;0.40;;;23.20;1.00;;;;;;5073680;28;20701;-54
2023/07/21 07:27:42;;;;;;;0.60;0.30;;;23.10;1.00;;;;;;5083247;28;20443;-56
2023/07/21 07:30:09;;;;;;;1.80;0.47;;;23.10;1.00;;;;;;5072850;28;20433;-55
2023/07/21 07:32:36;;;;;;;0.52;0.40;;;23.00;1.00;;;;;;5071464;28;20443;-55
2023/07/21 07:35:04;;;;;;;0.70;0.40;;;22.90;1.00;;;;;;5072021;28;20471;-55
2023/07/21 07:37:31;;;;;;;0.70;0.40;;;23.00;1.00;;;;;;5070842;28;20423;-55
2023/07/21 07:39:59;;;;;;;0.60;0.40;;;22.70;1.00;;;;;;5070441;28;20435;-55
2023/07/21 07:42:27;;;;;;;0.70;0.40;;;22.80;1.00;;;;;;5069247;28;20488;-52
2023/07/21 07:44:58;;;;;;;0.82;0.50;;;23.00;1.00;;;;;;5065607;28;20863;-56
2023/07/21 07:47:25;;;;;;;2.00;0.40;;;23.30;1.00;;;;;;5054849;28;20444;-56
2023/07/21 07:49:52;;;;;;;0.60;0.40;;;23.50;1.00;;;;;;5055672;28;20433;-51
2023/07/21 07:52:19;;;;;;;0.70;0.40;;;23.70;1.00;;;;;;5049916;28;20432;-50
2023/07/21 07:54:47;;;;;;;1.10;0.45;;;23.70;1.00;;;;;;5048017;28;20457;-50
2023/07/21 07:57:15;;;;;;;0.90;0.30;;;23.60;1.00;;;;;;5055103;28;20429;-52
2023/07/21 07:59:43;;;;;;;0.77;0.40;;;23.70;1.00;;;;;;5056619;28;20729;-54
2023/07/21 08:02:10;;;;;;;1.20;0.50;;;23.80;1.00;;;;;;5054979;28;20432;-52
2023/07/21 08:04:37;;;;;;;0.98;0.40;;;23.70;1.00;;;;;;5052773;28;20498;-52
2023/07/21 08:07:04;;;;;;;0.80;0.40;;;23.80;1.00;;;;;;5054457;28;20738;-52
2023/07/21 08:09:31;;;;;;;0.90;0.50;;;23.80;1.00;;;;;;5055755;28;20433;-55
2023/07/21 08:11:58;;;;;;;1.40;0.40;;;23.70;1.00;;;;;;5055053;28;20437;-54
2023/07/21 08:14:27;;;;;;;0.70;0.50;;;23.70;1.00;;;;;;5054729;28;20490;-51
2023/07/21 08:16:54;;;;;;;0.70;0.40;;;23.50;1.00;;;;;;5055960;28;20440;-48
2023/07/21 08:19:21;;;;;;;1.00;0.40;;;23.40;1.00;;;;;;5052468;28;20425;-51
2023/07/21 08:21:48;;;;;;;0.70;0.50;;;23.50;1.00;;;;;;5054964;28;20558;-50
2023/07/21 08:24:16;;;;;;;1.38;0.45;;;23.40;1.00;;;;;;5053800;28;20487;-53
2023/07/21 08:26:43;;;;;;;1.00;0.40;;;23.50;1.00;;;;;;5055323;28;20429;-50
2023/07/21 08:29:10;;;;;;;0.90;0.40;;;23.70;1.00;;;;;;5055153;28;20437;-47
2023/07/21 08:31:38;;;;;;;0.70;0.40;;;23.90;1.00;;;;;;5056181;28;20483;-48
2023/07/21 08:34:05;;;;;;;0.80;0.40;;;24.10;1.00;;;;;;5054792;28;20433;-50
2023/07/21 08:36:32;;;;;;;0.75;0.40;;;24.10;1.00;;;;;;5055473;28;20483;-53
2023/07/21 08:38:59;;;;;;;0.80;0.35;;;24.30;1.00;;;;;;5051905;28;20806;-49
2023/07/21 08:41:26;;;;;;;1.30;0.40;;;24.30;1.00;;;;;;5051206;28;20437;-51
2023/07/21 08:43:55;;;;;;;0.53;0.40;;;24.50;1.00;;;;;;5051919;28;20457;-50
2023/07/21 08:46:22;;;;;;;0.80;0.40;;;24.30;1.00;;;;;;5074245;28;20982;-53
2023/07/21 08:48:53;;;;;;;1.10;0.40;;;24.30;1.00;;;;;;5072569;28;20435;-51
2023/07/21 08:51:20;;;;;;;0.70;0.40;;;24.30;1.00;;;;;;5072482;28;20794;-54
2023/07/21 08:53:47;;;;;;;0.90;0.40;;;24.50;1.00;;;;;;5071939;28;20513;-53
2023/07/21 08:56:14;;;;;;;1.30;0.40;;;24.70;1.00;;;;;;5073944;28;20827;-52
2023/07/21 08:58:41;;;;;;;0.65;0.40;;;24.50;1.00;;;;;;5073852;28;20726;-52
2023/07/21 09:01:09;;;;;;;0.90;0.40;;;24.40;1.00;;;;;;5075510;28;20535;-54
2023/07/21 09:03:36;;;;;;;1.60;0.40;;;24.40;1.00;;;;;;5074992;28;20427;-51
2023/07/21 09:06:04;;;;;;;0.80;0.50;;;24.50;1.00;;;;;;5075914;28;20428;-51
2023/07/21 09:08:34;;;;;;;0.70;0.40;;;24.60;1.00;;;;;;5070608;28;20441;-52
2023/07/21 09:11:03;;;;;;;0.70;0.40;;;24.20;1.00;;;;;;5070894;28;20431;-51
2023/07/21 09:13:31;;;;;;;0.70;0.47;;;24.20;1.00;;;;;;5074310;28;20427;-55
2023/07/21 09:16:00;;;;;;;0.80;0.60;;;24.20;1.00;;;;;;5073445;28;20723;-53
2023/07/21 09:18:27;;;;;;;1.67;0.40;;;24.40;1.00;;;;;;5073551;28;20445;-53
2023/07/21 09:20:55;;;;;;;1.00;0.40;;;24.50;1.00;;;;;;5070260;28;20871;-53
2023/07/21 09:23:26;;;;;;;0.50;0.30;;;24.70;1.00;;;;;;5070581;28;20736;-53
2023/07/21 09:25:55;;;;;;;0.80;0.40;;;24.70;1.00;;;;;;5058417;28;20845;-54
2023/07/21 09:28:37;;;;;;;0.60;0.40;;;24.50;1.00;;;;;;5071981;28;20504;-52
2023/07/21 09:31:04;;;;;;;0.80;0.40;;;24.40;1.00;;;;;;5073751;28;20438;-53
2023/07/21 09:33:32;;;;;;;1.20;0.32;;;24.80;1.00;;;;;;5072047;28;20432;-54
2023/07/21 09:36:07;;;;;;;1.50;0.30;;;25.10;1.00;;;;;;5072445;28;20435;-53
2023/07/21 09:38:37;;;;;;;1.30;0.40;;;25.60;1.00;;;;;;5072646;28;20448;-54
2023/07/21 09:41:06;;;;;;;2.10;0.40;;;26.00;1.00;;;;;;5072614;28;20732;-51
2023/07/21 09:43:33;;;;;;;0.63;0.30;;;26.30;1.00;;;;;;5072596;28;20416;-55
2023/07/21 09:46:01;;;;;;;0.70;0.40;;;26.40;1.00;;;;;;5061632;28;20555;-52
2023/07/21 09:48:29;;;;;;;0.55;0.30;;;26.50;1.00;;;;;;5053102;28;20531;-53
2023/07/21 09:50:59;;;;;;;1.00;0.40;;;26.50;1.00;;;;;;5060938;28;20778;-52
2023/07/21 09:53:33;;;;;;;0.52;0.38;;;26.40;1.00;;;;;;5067133;28;20805;-52
2023/07/21 09:56:04;;;;;;;0.70;0.30;;;26.20;1.00;;;;;;5073953;28;20427;-54
2023/07/21 09:58:35;;;;;;;0.60;0.40;;;26.20;1.00;;;;;;5073601;28;20756;-52
2023/07/21 10:01:04;;;;;;;0.82;0.40;;;26.40;1.00;;;;;;5072706;28;20480;-51
2023/07/21 10:03:32;;;;;;;0.70;0.40;;;26.60;1.00;;;;;;5071308;28;20442;-52
2023/07/21 10:06:01;;;;;;;1.23;0.30;;;26.50;1.00;;;;;;5069546;28;20443;-50
2023/07/21 10:08:29;;;;;;;0.80;0.30;;;26.50;1.00;;;;;;5072441;28;20442;-56
2023/07/21 10:10:58;;;;;;;0.50;0.30;;;26.40;1.00;;;;;;5071810;28;20467;-54
2023/07/21 10:13:28;;;;;;;0.60;0.30;;;25.90;1.00;;;;;;5072368;28;20434;-54
2023/07/21 10:16:01;;;;;;;0.90;0.38;;;26.00;1.00;;;;;;5068094;28;20431;-51
2023/07/21 10:18:28;;;;;;;0.70;0.40;;;26.10;1.00;;;;;;5073250;28;20435;-53
2023/07/21 10:20:57;;;;;;;0.70;0.30;;;26.30;1.00;;;;;;5088984;28;20886;-53
2023/07/21 10:23:33;;;;;;;0.60;0.40;;;26.60;1.00;;;;;;5072935;28;20435;-54
2023/07/21 10:26:04;;;;;;;0.70;0.40;;;26.70;1.00;;;;;;5067884;28;20522;-52
2023/07/21 10:28:38;;;;;;;1.35;0.30;;;26.70;1.00;;;;;;5063411;28;20443;-55
2023/07/21 10:31:33;;;;;;;0.60;0.30;;;26.80;1.00;;;;;;5086635;28;20417;-53
2023/07/21 10:34:11;;;;;;;2.80;0.40;;;26.70;1.00;;;;;;5082423;28;20426;-54
2023/07/21 10:36:58;;;;;;;0.80;0.40;;;26.20;1.00;;;;;;5073170;28;20493;-56
2023/07/21 10:39:27;;;;;;;0.90;0.40;;;26.20;1.00;;;;;;5080099;28;20462;-55
2023/07/21 10:41:55;;;;;;;0.50;0.30;;;26.40;1.00;;;;;;5069385;28;20439;-56
2023/07/21 10:44:24;;;;;;;1.23;0.40;;;26.70;1.00;;;;;;5071484;28;20424;-56
2023/07/21 10:46:52;;;;;;;0.60;0.40;;;27.20;1.00;;;;;;5065768;28;20440;-56
2023/07/21 10:49:20;;;;;;;0.63;0.30;;;27.50;1.00;;;;;;5067151;28;20498;-56
2023/07/21 10:51:49;;;;;;;1.10;0.30;;;27.80;1.00;;;;;;5069454;28;20507;-54
2023/07/21 10:54:17;;;;;;;0.70;0.40;;;27.60;1.00;;;;;;5069211;28;20540;-56
2023/07/21 10:56:46;;;;;;;1.20;0.30;;;28.00;1.00;;;;;;5071663;28;20432;-55
2023/07/21 10:59:15;;;;;;;0.50;0.30;;;28.30;1.00;;;;;;5068908;28;20718;-57
2023/07/21 11:01:45;;;;;;;1.02;0.40;;;28.30;1.00;;;;;;5067501;28;20431;-53
2023/07/21 11:04:13;;;;;;;0.70;0.40;;;28.20;1.00;;;;;;5067544;28;20431;-54
2023/07/21 11:06:42;;;;;;;0.50;0.30;;;27.50;1.00;;;;;;5069219;28;20439;-55
2023/07/21 11:09:11;;;;;;;0.70;0.40;;;27.40;1.00;;;;;;5071135;28;20441;-56
2023/07/21 11:11:42;;;;;;;0.60;0.30;;;27.50;1.00;;;;;;5071075;28;20533;-55
2023/07/21 11:14:12;;;;;;;0.65;0.40;;;27.70;1.00;;;;;;5071009;28;20439;-55
2023/07/21 11:16:50;;;;;;;0.65;0.40;;;27.70;1.00;;;;;;5065299;28;20912;-55
2023/07/21 11:19:18;;;;;;;1.10;0.40;;;27.80;1.00;;;;;;5066345;28;20449;-55
2023/07/21 11:21:46;;;;;;;0.68;0.40;;;27.90;1.00;;;;;;5074261;28;20598;-52
2023/07/21 11:24:17;;;;;;;0.80;0.30;;;27.90;1.00;;;;;;5073010;28;20431;-54
2023/07/21 11:26:45;;;;;;;1.10;0.30;;;28.10;1.00;;;;;;5076356;28;20735;-55
2023/07/21 11:29:12;;;;;;;2.00;0.40;;;28.40;1.00;;;;;;5073950;28;20431;-54
2023/07/21 11:31:40;;;;;;;0.60;0.40;;;28.50;1.00;;;;;;5068149;28;20423;-54
2023/07/21 11:34:20;;;;;;;0.70;0.40;;;27.90;1.00;;;;;;5069808;28;20510;-54
2023/07/21 11:36:48;;;;;;;1.00;0.30;;;27.60;1.00;;;;;;5074884;28;20448;-53
2023/07/21 11:39:19;;;;;;;0.77;0.40;;;27.50;1.00;;;;;;5073670;28;20488;-54
2023/07/21 11:41:51;;;;;;;0.60;0.40;;;27.50;1.00;;;;;;5071868;28;20538;-56
2023/07/21 11:44:20;;;;;;;0.60;0.40;;;27.20;1.00;;;;;;5072381;28;20731;-55
2023/07/21 11:47:04;;;;;;;0.67;0.40;;;27.20;1.00;;;;;;5075085;28;20419;-55
2023/07/21 11:49:37;;;;;;;0.60;0.30;;;27.10;1.00;;;;;;5066166;28;20438;-54
2023/07/21 11:52:05;;;;;;;1.80;0.40;;;27.00;1.00;;;;;;5068058;28;20505;-53
2023/07/21 11:54:38;;;;;;;0.77;0.40;;;26.80;1.00;;;;;;5076008;28;20438;-56
2023/07/21 11:57:06;;;;;;;0.90;0.40;;;26.80;1.00;;;;;;5073234;28;20435;-55
2023/07/21 11:59:33;;;;;;;0.88;0.50;;;26.70;1.00;;;;;;5072001;28;20437;-54
2023/07/21 12:02:02;;;;;;;0.90;0.40;;;26.70;1.00;;;;;;5072118;28;20460;-55
2023/07/21 12:04:29;;;;;;;1.10;0.40;;;26.70;1.00;;;;;;5072888;28;20519;-52
2023/07/21 12:06:58;;;;;;;0.90;0.40;;;26.80;1.00;;;;;;5071221;28;20493;-52
2023/07/21 12:09:25;;;;;;;0.60;0.32;;;26.60;1.00;;;;;;5071335;28;20427;-54
2023/07/21 12:11:54;;;;;;;1.90;0.40;;;26.40;1.00;;;;;;5072290;28;20462;-53
2023/07/21 12:14:23;;;;;;;0.70;0.40;;;26.60;1.00;;;;;;5064346;28;20645;-53
2023/07/21 12:16:53;;;;;;;0.70;0.40;;;26.80;1.00;;;;;;5061870;28;20784;-50
2023/07/21 12:19:20;;;;;;;0.90;0.40;;;27.00;1.00;;;;;;5064981;28;20823;-54
2023/07/21 12:21:47;;;;;;;0.60;0.40;;;27.00;1.00;;;;;;5072663;28;20442;-50
2023/07/21 12:24:16;;;;;;;0.50;0.30;;;26.90;1.00;;;;;;5065314;28;20455;-53
2023/07/21 12:26:43;;;;;;;0.77;0.47;;;26.40;1.00;;;;;;5060988;28;20432;-50
2023/07/21 12:29:09;;;;;;;1.10;0.40;;;25.70;1.00;;;;;;5067309;28;20486;-53
2023/07/21 12:31:36;;;;;;;1.20;0.50;;;25.20;1.00;;;;;;5064228;28;20467;-55
2023/07/21 12:34:04;;;;;;;0.70;0.38;;;24.90;1.00;;;;;;5069251;28;20428;-55
2023/07/21 12:36:32;;;;;;;0.93;0.40;;;24.60;1.00;;;;;;5072341;28;20431;-55
2023/07/21 12:38:59;;;;;;;0.70;0.40;;;24.20;1.00;;;;;;5068002;28;20493;-54
2023/07/21 12:41:27;;;;;;;1.33;0.50;;;23.90;1.00;;;;;;5058407;28;20802;-55
2023/07/21 12:43:54;;;;;;;0.70;0.40;;;23.70;1.00;;;;;;5054395;28;20437;-54
2023/07/21 12:46:21;;;;;;;1.50;0.43;;;23.60;1.00;;;;;;5059169;28;20485;-54
2023/07/21 12:48:49;;;;;;;0.90;0.40;;;23.60;1.00;;;;;;5072117;28;20439;-52
2023/07/21 12:51:16;;;;;;;0.70;0.40;;;23.60;1.00;;;;;;5072025;28;20484;-55
2023/07/21 12:53:43;;;;;;;1.00;0.40;;;23.70;1.00;;;;;;5071128;28;20470;-55
2023/07/21 12:56:10;;;;;;;1.30;0.43;;;23.50;1.00;;;;;;5070918;28;20423;-52
2023/07/21 12:58:39;;;;;;;0.63;0.40;;;23.80;1.00;;;;;;5067119;28;20475;-54
2023/07/21 13:01:06;;;;;;;0.80;0.40;;;24.40;1.00;;;;;;5071145;28;20445;-52
2023/07/21 13:03:34;;;;;;;0.70;0.40;;;24.60;1.00;;;;;;5072119;28;20439;-54